Track Шепитько Даниэль

Time Latitude Longitude Accuracy (66% radius in meters) Altitude (meters) Speed (km/hour) Bearing (degrees) Battery (%) GPS flag
06:57:14 57.204023 60.118175 0 0 0 0 1 delete
06:57:13 57.204023 60.118172 0 0 0 0 1 delete
06:57:12 57.204027 60.118163 0 0 0 0 1 delete
06:57:11 57.204038 60.118143 0 0 0 0 1 delete
06:57:10 57.204054 60.118115 0 0 0 0 1 delete
06:57:09 57.204071 60.118085 0 0 0 0 1 delete
06:57:08 57.204085 60.118062 0 0 0 0 1 delete
06:57:07 57.204098 60.118042 0 0 0 0 1 delete
06:57:06 57.204110 60.118018 0 0 0 0 1 delete
06:57:05 57.204126 60.117993 0 0 0 0 1 delete
06:57:04 57.204142 60.117967 0 0 0 0 1 delete
06:57:03 57.204159 60.117942 0 0 0 0 1 delete
06:57:02 57.204175 60.117914 0 0 0 0 1 delete
06:57:01 57.204195 60.117880 0 0 0 0 1 delete
06:57:00 57.204217 60.117843 0 0 0 0 1 delete
06:56:59 57.204239 60.117809 0 0 0 0 1 delete
06:56:58 57.204259 60.117776 0 0 0 0 1 delete
06:56:57 57.204280 60.117744 0 0 0 0 1 delete
06:56:56 57.204301 60.117715 0 0 0 0 1 delete
06:56:55 57.204321 60.117687 0 0 0 0 1 delete
06:56:54 57.204339 60.117663 0 0 0 0 1 delete
06:56:53 57.204355 60.117643 0 0 0 0 1 delete
06:56:52 57.204373 60.117624 0 0 0 0 1 delete
06:56:51 57.204394 60.117600 0 0 0 0 1 delete
06:56:50 57.204419 60.117575 0 0 0 0 1 delete
06:56:49 57.204442 60.117551 0 0 0 0 1 delete
06:56:48 57.204465 60.117531 0 0 0 0 1 delete
06:56:47 57.204489 60.117512 0 0 0 0 1 delete
06:56:46 57.204517 60.117493 0 0 0 0 1 delete
06:56:45 57.204551 60.117476 0 0 0 0 1 delete
06:56:44 57.204587 60.117461 0 0 0 0 1 delete
06:56:43 57.204625 60.117451 0 0 0 0 1 delete
06:56:42 57.204662 60.117444 0 0 0 0 1 delete
06:56:41 57.204700 60.117442 0 0 0 0 1 delete
06:56:40 57.204738 60.117445 0 0 0 0 1 delete
06:56:39 57.204771 60.117450 0 0 0 0 1 delete
06:56:38 57.204806 60.117456 0 0 0 0 1 delete
06:56:37 57.204844 60.117463 0 0 0 0 1 delete
06:56:36 57.204883 60.117472 0 0 0 0 1 delete
06:56:35 57.204921 60.117483 0 0 0 0 1 delete
06:56:34 57.204957 60.117495 0 0 0 0 1 delete
06:56:33 57.204993 60.117509 0 0 0 0 1 delete
06:56:32 57.205028 60.117522 0 0 0 0 1 delete
06:56:31 57.205059 60.117535 0 0 0 0 1 delete
06:56:30 57.205086 60.117547 0 0 0 0 1 delete
06:56:29 57.205110 60.117559 0 0 0 0 1 delete
06:56:28 57.205131 60.117572 0 0 0 0 1 delete
06:56:27 57.205151 60.117586 0 0 0 0 1 delete
06:56:26 57.205167 60.117598 0 0 0 0 1 delete
06:56:25 57.205183 60.117608 0 0 0 0 1 delete